Blidosund — SDKG — position and weather

sailwx.info

Track history (hours):
 
Tides and Currents Weather Stations Pressure Air Temp Water Temp Dewpoint Dewpoint Depression Visibility Wind Speed Wind Dir Waves Ship Positions

Blidosund

Last reported at 2014-Oct-24 19:32 UTC. Time now 2014-Oct-24 20:30 UTC.
Position N 59°19' E 018°06'.

Length 35 m; draft 3 m.

Type: Passenger vessel. MMSI: 265522680.

Date/timePositionNaut miles runAvg speedWind from/ knotsBaromVisibWave heightAir tempDewpointWater temp
2014-Oct-24 19:32N 59°19' E 018°06'2 1.6
2014-Oct-24 18:34N 59°19' E 018°03'2 1.6
2014-Oct-24 17:33N 59°19' E 018°00'2 2.2
2014-Oct-24 16:33N 59°20' E 018°05'0 0.0
2014-Oct-24 15:34N 59°20' E 018°05'0 0.0
2014-Oct-24 14:34N 59°20' E 018°05'0 0.0
2014-Oct-24 13:32N 59°20' E 018°05'0 0.0
2014-Oct-24 12:32N 59°20' E 018°05'0 0.0
2014-Oct-24 11:34N 59°20' E 018°05'0 0.0
2014-Oct-24 10:33N 59°20' E 018°05'0 0.0
2014-Oct-24 09:33N 59°20' E 018°05'0 0.0
2014-Oct-24 08:33N 59°20' E 018°05'0 0.0
2014-Oct-24 07:32N 59°20' E 018°05'0 0.0
2014-Oct-24 06:31N 59°20' E 018°05'0 0.0
2014-Oct-24 05:31N 59°20' E 018°05'0 0.0
2014-Oct-24 04:31N 59°20' E 018°05'0 0.0
2014-Oct-24 03:33N 59°20' E 018°05'0 0.0
2014-Oct-24 02:33N 59°20' E 018°05'0 0.0
2014-Oct-24 01:33N 59°20' E 018°05'0 0.0
2014-Oct-24 00:33N 59°20' E 018°05'0 0.0
2014-Oct-23 23:32N 59°20' E 018°05'0 0.0
2014-Oct-23 22:32N 59°20' E 018°05'0 0.0
2014-Oct-23 21:33N 59°20' E 018°05'0 0.0
2014-Oct-23 20:33N 59°20' E 018°05'1 1.4
2014-Oct-23 19:33N 59°18' E 018°06'1 1.5
2014-Oct-23 18:34N 59°19' E 018°04'2 1.6
2014-Oct-23 17:34N 59°19' E 018°00'2 2.2
2014-Oct-23 16:34N 59°20' E 018°05'0 0.1
2014-Oct-23 15:32N 59°20' E 018°05'0 0.0
2014-Oct-23 14:33N 59°20' E 018°05'0 0.0
2014-Oct-23 13:33N 59°20' E 018°05'0 0.0
2014-Oct-23 12:33N 59°20' E 018°05'0 0.0
2014-Oct-23 11:34N 59°20' E 018°05'0 0.0
2014-Oct-23 10:33N 59°20' E 018°05'0 0.0
2014-Oct-23 09:33N 59°20' E 018°05'0 0.0
2014-Oct-23 08:34N 59°20' E 018°05'0 0.0
2014-Oct-23 07:33N 59°20' E 018°05'0 0.0
2014-Oct-23 06:33N 59°20' E 018°05'0 0.0
2014-Oct-23 05:31N 59°20' E 018°05'0 0.0
2014-Oct-23 04:31N 59°20' E 018°05'0 0.0
2014-Oct-23 03:33N 59°20' E 018°05'0 0.0
2014-Oct-23 02:33N 59°20' E 018°05'0 0.0
2014-Oct-23 01:32N 59°20' E 018°05'0 0.0
2014-Oct-23 00:34N 59°20' E 018°05'0 0.0
2014-Oct-22 23:33N 59°20' E 018°05'0 0.0
2014-Oct-22 22:33N 59°20' E 018°05'0 0.0
2014-Oct-22 12:08N 59°19' E 018°05'0 0.3
2014-Oct-22 11:33N 59°20' E 018°05'0 0.0
2014-Oct-22 10:33N 59°20' E 018°05'0 0.0
2014-Oct-22 09:33N 59°20' E 018°05'1 0.6
2014-Oct-22 08:33N 59°19' E 018°05'1 0.7
2014-Oct-22 07:32N 59°20' E 018°05'0 0.0
2014-Oct-22 06:33N 59°20' E 018°05'0 0.0
2014-Oct-22 05:33N 59°20' E 018°05'0 0.0
2014-Oct-22 04:33N 59°20' E 018°05'0 0.0
2014-Oct-22 03:33N 59°20' E 018°05'0 0.0
2014-Oct-22 02:33N 59°20' E 018°05'0 0.0
2014-Oct-22 01:32N 59°20' E 018°05'0 0.0
2014-Oct-22 00:33N 59°20' E 018°05'0 0.0
2014-Oct-21 23:33N 59°20' E 018°05'0 0.0
2014-Oct-21 22:32N 59°20' E 018°05'0 0.0
2014-Oct-21 21:33N 59°20' E 018°05'0 0.0
2014-Oct-21 20:33N 59°20' E 018°05'0 0.0
2014-Oct-21 19:33N 59°20' E 018°05'0 0.0
2014-Oct-21 18:33N 59°20' E 018°05'0 0.0
2014-Oct-21 17:33N 59°20' E 018°05'0 0.0
2014-Oct-21 16:32N 59°20' E 018°05'0 0.0
2014-Oct-21 15:33N 59°20' E 018°05'0 0.0
2014-Oct-21 14:33N 59°20' E 018°05'0 0.0
2014-Oct-21 13:33N 59°20' E 018°05'0 0.0
2014-Oct-21 12:33N 59°20' E 018°05'0 0.0
2014-Oct-21 11:33N 59°20' E 018°05'0 0.0
2014-Oct-21 10:33N 59°20' E 018°05'0 0.0
2014-Oct-21 09:32N 59°20' E 018°05'0 0.0
2014-Oct-21 08:32N 59°20' E 018°05'0 0.0
2014-Oct-21 07:33N 59°20' E 018°05'0 0.0
2014-Oct-21 06:33N 59°20' E 018°05'0 0.0
2014-Oct-21 05:33N 59°20' E 018°05'0 0.0
2014-Oct-21 04:33N 59°20' E 018°05'0 0.0
2014-Oct-21 03:32N 59°20' E 018°05'0 0.0
2014-Oct-21 02:32N 59°20' E 018°05'0 0.0
2014-Oct-21 01:33N 59°20' E 018°05'0 0.0
2014-Oct-21 00:33N 59°20' E 018°05'0 0.0
2014-Oct-20 23:33N 59°20' E 018°05'0 0.0
2014-Oct-20 22:33N 59°20' E 018°05'0 0.0
2014-Oct-20 21:33N 59°20' E 018°05'0 0.0
2014-Oct-20 20:33N 59°20' E 018°05'0 0.0
2014-Oct-20 19:33N 59°20' E 018°05'0 0.0
2014-Oct-20 18:33N 59°20' E 018°05'0 0.0
2014-Oct-20 17:33N 59°20' E 018°05'0 0.0
2014-Oct-20 16:32N 59°20' E 018°05'0 0.0
2014-Oct-20 15:32N 59°20' E 018°05'0 0.0
2014-Oct-20 14:33N 59°20' E 018°05'0 0.0
2014-Oct-20 13:33N 59°20' E 018°05'0 0.0
2014-Oct-20 12:33N 59°20' E 018°05'0 0.0
2014-Oct-20 11:33N 59°20' E 018°05'0 0.0
2014-Oct-20 10:33N 59°20' E 018°05'0 0.0
2014-Oct-20 09:32N 59°20' E 018°05'0 0.0
2014-Oct-20 08:33N 59°20' E 018°05'0 0.0
2014-Oct-20 07:33N 59°20' E 018°05'0 0.0
2014-Oct-20 06:33N 59°20' E 018°05'0 0.0
2014-Oct-20 05:32N 59°20' E 018°05'0 0.0
2014-Oct-20 04:33N 59°20' E 018°05'0 0.0
2014-Oct-20 03:33N 59°20' E 018°05'0 0.0
2014-Oct-20 02:33N 59°20' E 018°05'0 0.0
2014-Oct-20 01:33N 59°20' E 018°05'0 0.0
2014-Oct-20 00:33N 59°20' E 018°05'0 0.0
2014-Oct-19 23:33N 59°20' E 018°05'0 0.0
2014-Oct-19 22:33N 59°20' E 018°05'0 0.0
2014-Oct-19 21:33N 59°20' E 018°05'0 0.0
2014-Oct-19 20:33N 59°20' E 018°05'0 0.0
2014-Oct-19 19:33N 59°20' E 018°05'0 0.0
2014-Oct-19 18:33N 59°20' E 018°05'0 0.0
2014-Oct-19 17:33N 59°20' E 018°05'0 0.0
2014-Oct-19 16:33N 59°20' E 018°05'0 0.0
2014-Oct-19 15:32N 59°20' E 018°05'0 0.0
2014-Oct-19 14:14N 59°20' E 018°05'0 0.0
2014-Oct-19 13:31N 59°20' E 018°05'0 0.0
2014-Oct-19 12:33N 59°20' E 018°05'0 0.0
2014-Oct-19 11:33N 59°20' E 018°05'0 0.0
2014-Oct-19 10:33N 59°20' E 018°05'0 0.0
2014-Oct-19 09:33N 59°20' E 018°05'0 0.0
2014-Oct-19 08:33N 59°20' E 018°05'0 0.0
2014-Oct-19 07:33N 59°20' E 018°05'0 0.0
2014-Oct-19 06:33N 59°20' E 018°05'0 0.0
2014-Oct-19 05:29N 59°20' E 018°05'0 0.0
2014-Oct-19 04:29N 59°20' E 018°05'0 0.0
2014-Oct-19 03:31N 59°20' E 018°05'0 0.0
2014-Oct-19 02:33N 59°20' E 018°05'0 0.0
2014-Oct-19 01:33N 59°20' E 018°05'0 0.0
2014-Oct-19 00:33N 59°20' E 018°05'0 0.0
2014-Oct-18 23:32N 59°20' E 018°05'0 0.0
2014-Oct-18 22:33N 59°20' E 018°05'0 0.0
2014-Oct-18 21:32N 59°20' E 018°05'0 0.0
2014-Oct-18 20:32N 59°20' E 018°05'0 0.0
2014-Oct-18 19:33N 59°20' E 018°05'0 0.0
2014-Oct-18 18:33N 59°20' E 018°05'0 0.0
2014-Oct-18 17:32N 59°20' E 018°05'0 0.0
2014-Oct-18 16:32N 59°20' E 018°05'0 0.0
2014-Oct-18 15:32N 59°20' E 018°05'0 0.0
2014-Oct-18 14:33N 59°20' E 018°05'0 0.0
2014-Oct-18 13:33N 59°20' E 018°05'0 0.0
2014-Oct-18 12:33N 59°20' E 018°05'0 0.0
2014-Oct-18 11:32N 59°20' E 018°05'0 0.0
2014-Oct-18 10:33N 59°20' E 018°05'0 0.0
2014-Oct-18 09:33N 59°20' E 018°05'0 0.0
2014-Oct-18 08:33N 59°20' E 018°05'0 0.0
2014-Oct-18 07:33N 59°20' E 018°05'0 0.0
2014-Oct-18 06:32N 59°20' E 018°05'0 0.0
2014-Oct-18 05:24N 59°20' E 018°05'0 0.0
2014-Oct-18 04:33N 59°20' E 018°05'0 0.0
2014-Oct-18 03:33N 59°20' E 018°05'0 0.0
2014-Oct-18 02:33N 59°20' E 018°05'0 0.0
2014-Oct-18 01:33N 59°20' E 018°05'0 0.0
2014-Oct-18 00:33N 59°20' E 018°05'0 0.0
2014-Oct-17 23:32N 59°20' E 018°05'0 0.0
2014-Oct-17 22:33N 59°20' E 018°05'0 0.0
2014-Oct-17 21:33N 59°20' E 018°05'0 0.0
2014-Oct-17 20:33N 59°20' E 018°05'2 2.2
2014-Oct-17 19:33N 59°19' E 018°09'4 3.5
2014-Oct-17 18:32N 59°19' E 018°02'1 1.0
2014-Oct-17 17:33N 59°19' E 017°60'2 2.4
2014-Oct-17 16:33N 59°20' E 018°05'0 0.0
2014-Oct-17 15:33N 59°20' E 018°05'0 0.0
2014-Oct-17 14:31N 59°20' E 018°05'0 0.0
2014-Oct-17 13:32N 59°20' E 018°05'0 0.0
2014-Oct-17 12:32N 59°20' E 018°05'0 0.0
2014-Oct-17 11:33N 59°20' E 018°05'0 0.0
2014-Oct-17 10:33N 59°20' E 018°05'0 0.0
2014-Oct-17 09:33N 59°20' E 018°05'0 0.0
2014-Oct-17 08:32N 59°20' E 018°05'0 0.0
2014-Oct-17 07:32N 59°20' E 018°05'0 0.0
2014-Oct-17 06:32N 59°20' E 018°05'0 0.0
2014-Oct-17 05:32N 59°20' E 018°05'0 0.0
2014-Oct-17 04:33N 59°20' E 018°05'0 0.0
2014-Oct-17 03:33N 59°20' E 018°05'0 0.0
2014-Oct-17 02:33N 59°20' E 018°05'0 0.0
2014-Oct-17 01:32N 59°20' E 018°05'0 0.0
2014-Oct-17 00:32N 59°20' E 018°05'0 0.0
2014-Oct-16 23:33N 59°20' E 018°05'0 0.0
2014-Oct-16 22:33N 59°20' E 018°05'0 0.0
2014-Oct-16 21:32N 59°20' E 018°05'0 0.0
2014-Oct-16 20:33N 59°20' E 018°05'2 2.1
2014-Oct-16 19:32N 59°19' E 018°09'3 3.5
2014-Oct-16 18:32N 59°19' E 018°02'1 1.0
2014-Oct-16 17:32N 59°19' E 017°60'2 2.5
2014-Oct-16 16:33N 59°20' E 018°05'0 0.1
2014-Oct-16 15:33N 59°20' E 018°05'0 0.0
2014-Oct-16 14:33N 59°20' E 018°05'0 0.0
2014-Oct-16 13:33N 59°20' E 018°05'0 0.0
2014-Oct-16 12:33N 59°20' E 018°05'0 0.0
2014-Oct-16 06:31N 59°20' E 018°05'0 0.0
2014-Oct-16 05:09N 59°20' E 018°05'0 0.0
2014-Oct-16 04:32N 59°20' E 018°05'0 0.0
2014-Oct-16 03:33N 59°20' E 018°05'0 0.0
2014-Oct-16 00:24N 59°20' E 018°05'0 0.0
2014-Oct-15 23:33N 59°20' E 018°05'0 0.0
2014-Oct-15 20:12N 59°20' E 018°05'1 0.5
2014-Oct-15 18:33N 59°19' E 018°03'1 0.1
2014-Oct-15 04:32N 59°20' E 018°05'0 0.0
2014-Oct-15 03:33N 59°20' E 018°05'0 0.0
2014-Oct-15 02:25N 59°20' E 018°05'0 0.0
2014-Oct-15 01:31N 59°20' E 018°05'0 0.0
2014-Oct-15 00:32N 59°20' E 018°05'0 0.0
2014-Oct-14 23:28N 59°20' E 018°05'0 0.0
2014-Oct-14 22:32N 59°20' E 018°05'0 0.0
2014-Oct-14 21:33N 59°20' E 018°05'0 0.0
2014-Oct-14 20:32N 59°20' E 018°05'  
Track history (hours):
 
Tides and Currents Weather Stations Pressure Air Temp Water Temp Dewpoint Dewpoint Depression Visibility Wind Speed Wind Dir Waves Ship Positions

Blidosund

Last reported at 2014-Oct-24 19:32 UTC. Time now 2014-Oct-24 20:30 UTC.
Position N 59°19' E 018°06'.

Length 35 m; draft 3 m.

Type: Passenger vessel. MMSI: 265522680.

Date/timePositionNaut miles runAvg speedWind from/ knotsBaromVisibWave heightAir tempDewpointWater temp
2014-Oct-24 19:32N 59°19' E 018°06'2 1.6
2014-Oct-24 18:34N 59°19' E 018°03'2 1.6
2014-Oct-24 17:33N 59°19' E 018°00'2 2.2
2014-Oct-24 16:33N 59°20' E 018°05'0 0.0
2014-Oct-24 15:34N 59°20' E 018°05'0 0.0
2014-Oct-24 14:34N 59°20' E 018°05'0 0.0
2014-Oct-24 13:32N 59°20' E 018°05'0 0.0
2014-Oct-24 12:32N 59°20' E 018°05'0 0.0
2014-Oct-24 11:34N 59°20' E 018°05'0 0.0
2014-Oct-24 10:33N 59°20' E 018°05'0 0.0
2014-Oct-24 09:33N 59°20' E 018°05'0 0.0
2014-Oct-24 08:33N 59°20' E 018°05'0 0.0
2014-Oct-24 07:32N 59°20' E 018°05'0 0.0
2014-Oct-24 06:31N 59°20' E 018°05'0 0.0
2014-Oct-24 05:31N 59°20' E 018°05'0 0.0
2014-Oct-24 04:31N 59°20' E 018°05'0 0.0
2014-Oct-24 03:33N 59°20' E 018°05'0 0.0
2014-Oct-24 02:33N 59°20' E 018°05'0 0.0
2014-Oct-24 01:33N 59°20' E 018°05'0 0.0
2014-Oct-24 00:33N 59°20' E 018°05'0 0.0
2014-Oct-23 23:32N 59°20' E 018°05'0 0.0
2014-Oct-23 22:32N 59°20' E 018°05'0 0.0
2014-Oct-23 21:33N 59°20' E 018°05'0 0.0
2014-Oct-23 20:33N 59°20' E 018°05'1 1.4
2014-Oct-23 19:33N 59°18' E 018°06'1 1.5
2014-Oct-23 18:34N 59°19' E 018°04'2 1.6
2014-Oct-23 17:34N 59°19' E 018°00'2 2.2
2014-Oct-23 16:34N 59°20' E 018°05'0 0.1
2014-Oct-23 15:32N 59°20' E 018°05'0 0.0
2014-Oct-23 14:33N 59°20' E 018°05'0 0.0
2014-Oct-23 13:33N 59°20' E 018°05'0 0.0
2014-Oct-23 12:33N 59°20' E 018°05'0 0.0
2014-Oct-23 11:34N 59°20' E 018°05'0 0.0
2014-Oct-23 10:33N 59°20' E 018°05'0 0.0
2014-Oct-23 09:33N 59°20' E 018°05'0 0.0
2014-Oct-23 08:34N 59°20' E 018°05'0 0.0
2014-Oct-23 07:33N 59°20' E 018°05'0 0.0
2014-Oct-23 06:33N 59°20' E 018°05'0 0.0
2014-Oct-23 05:31N 59°20' E 018°05'0 0.0
2014-Oct-23 04:31N 59°20' E 018°05'0 0.0
2014-Oct-23 03:33N 59°20' E 018°05'0 0.0
2014-Oct-23 02:33N 59°20' E 018°05'0 0.0
2014-Oct-23 01:32N 59°20' E 018°05'0 0.0
2014-Oct-23 00:34N 59°20' E 018°05'0 0.0
2014-Oct-22 23:33N 59°20' E 018°05'0 0.0
2014-Oct-22 22:33N 59°20' E 018°05'0 0.0
2014-Oct-22 12:08N 59°19' E 018°05'0 0.3
2014-Oct-22 11:33N 59°20' E 018°05'0 0.0
2014-Oct-22 10:33N 59°20' E 018°05'0 0.0
2014-Oct-22 09:33N 59°20' E 018°05'1 0.6
2014-Oct-22 08:33N 59°19' E 018°05'1 0.7
2014-Oct-22 07:32N 59°20' E 018°05'0 0.0
2014-Oct-22 06:33N 59°20' E 018°05'0 0.0
2014-Oct-22 05:33N 59°20' E 018°05'0 0.0
2014-Oct-22 04:33N 59°20' E 018°05'0 0.0
2014-Oct-22 03:33N 59°20' E 018°05'0 0.0
2014-Oct-22 02:33N 59°20' E 018°05'0 0.0
2014-Oct-22 01:32N 59°20' E 018°05'0 0.0
2014-Oct-22 00:33N 59°20' E 018°05'0 0.0
2014-Oct-21 23:33N 59°20' E 018°05'0 0.0
2014-Oct-21 22:32N 59°20' E 018°05'0 0.0
2014-Oct-21 21:33N 59°20' E 018°05'0 0.0
2014-Oct-21 20:33N 59°20' E 018°05'0 0.0
2014-Oct-21 19:33N 59°20' E 018°05'0 0.0
2014-Oct-21 18:33N 59°20' E 018°05'0 0.0
2014-Oct-21 17:33N 59°20' E 018°05'0 0.0
2014-Oct-21 16:32N 59°20' E 018°05'0 0.0
2014-Oct-21 15:33N 59°20' E 018°05'0 0.0
2014-Oct-21 14:33N 59°20' E 018°05'0 0.0
2014-Oct-21 13:33N 59°20' E 018°05'0 0.0
2014-Oct-21 12:33N 59°20' E 018°05'0 0.0
2014-Oct-21 11:33N 59°20' E 018°05'0 0.0
2014-Oct-21 10:33N 59°20' E 018°05'0 0.0
2014-Oct-21 09:32N 59°20' E 018°05'0 0.0
2014-Oct-21 08:32N 59°20' E 018°05'0 0.0
2014-Oct-21 07:33N 59°20' E 018°05'0 0.0
2014-Oct-21 06:33N 59°20' E 018°05'0 0.0
2014-Oct-21 05:33N 59°20' E 018°05'0 0.0
2014-Oct-21 04:33N 59°20' E 018°05'0 0.0
2014-Oct-21 03:32N 59°20' E 018°05'0 0.0
2014-Oct-21 02:32N 59°20' E 018°05'0 0.0
2014-Oct-21 01:33N 59°20' E 018°05'0 0.0
2014-Oct-21 00:33N 59°20' E 018°05'0 0.0
2014-Oct-20 23:33N 59°20' E 018°05'0 0.0
2014-Oct-20 22:33N 59°20' E 018°05'0 0.0
2014-Oct-20 21:33N 59°20' E 018°05'0 0.0
2014-Oct-20 20:33N 59°20' E 018°05'0 0.0
2014-Oct-20 19:33N 59°20' E 018°05'0 0.0
2014-Oct-20 18:33N 59°20' E 018°05'0 0.0
2014-Oct-20 17:33N 59°20' E 018°05'0 0.0
2014-Oct-20 16:32N 59°20' E 018°05'0 0.0
2014-Oct-20 15:32N 59°20' E 018°05'0 0.0
2014-Oct-20 14:33N 59°20' E 018°05'0 0.0
2014-Oct-20 13:33N 59°20' E 018°05'0 0.0
2014-Oct-20 12:33N 59°20' E 018°05'0 0.0
2014-Oct-20 11:33N 59°20' E 018°05'0 0.0
2014-Oct-20 10:33N 59°20' E 018°05'0 0.0
2014-Oct-20 09:32N 59°20' E 018°05'0 0.0
2014-Oct-20 08:33N 59°20' E 018°05'0 0.0
2014-Oct-20 07:33N 59°20' E 018°05'0 0.0
2014-Oct-20 06:33N 59°20' E 018°05'0 0.0
2014-Oct-20 05:32N 59°20' E 018°05'0 0.0
2014-Oct-20 04:33N 59°20' E 018°05'0 0.0
2014-Oct-20 03:33N 59°20' E 018°05'0 0.0
2014-Oct-20 02:33N 59°20' E 018°05'0 0.0
2014-Oct-20 01:33N 59°20' E 018°05'0 0.0
2014-Oct-20 00:33N 59°20' E 018°05'0 0.0
2014-Oct-19 23:33N 59°20' E 018°05'0 0.0
2014-Oct-19 22:33N 59°20' E 018°05'0 0.0
2014-Oct-19 21:33N 59°20' E 018°05'0 0.0
2014-Oct-19 20:33N 59°20' E 018°05'0 0.0
2014-Oct-19 19:33N 59°20' E 018°05'0 0.0
2014-Oct-19 18:33N 59°20' E 018°05'0 0.0
2014-Oct-19 17:33N 59°20' E 018°05'0 0.0
2014-Oct-19 16:33N 59°20' E 018°05'0 0.0
2014-Oct-19 15:32N 59°20' E 018°05'0 0.0
2014-Oct-19 14:14N 59°20' E 018°05'0 0.0
2014-Oct-19 13:31N 59°20' E 018°05'0 0.0
2014-Oct-19 12:33N 59°20' E 018°05'0 0.0
2014-Oct-19 11:33N 59°20' E 018°05'0 0.0
2014-Oct-19 10:33N 59°20' E 018°05'0 0.0
2014-Oct-19 09:33N 59°20' E 018°05'0 0.0
2014-Oct-19 08:33N 59°20' E 018°05'0 0.0
2014-Oct-19 07:33N 59°20' E 018°05'0 0.0
2014-Oct-19 06:33N 59°20' E 018°05'0 0.0
2014-Oct-19 05:29N 59°20' E 018°05'0 0.0
2014-Oct-19 04:29N 59°20' E 018°05'0 0.0
2014-Oct-19 03:31N 59°20' E 018°05'0 0.0
2014-Oct-19 02:33N 59°20' E 018°05'0 0.0
2014-Oct-19 01:33N 59°20' E 018°05'0 0.0
2014-Oct-19 00:33N 59°20' E 018°05'0 0.0
2014-Oct-18 23:32N 59°20' E 018°05'0 0.0
2014-Oct-18 22:33N 59°20' E 018°05'0 0.0
2014-Oct-18 21:32N 59°20' E 018°05'0 0.0
2014-Oct-18 20:32N 59°20' E 018°05'0 0.0
2014-Oct-18 19:33N 59°20' E 018°05'0 0.0
2014-Oct-18 18:33N 59°20' E 018°05'0 0.0
2014-Oct-18 17:32N 59°20' E 018°05'0 0.0
2014-Oct-18 16:32N 59°20' E 018°05'0 0.0
2014-Oct-18 15:32N 59°20' E 018°05'0 0.0
2014-Oct-18 14:33N 59°20' E 018°05'0 0.0
2014-Oct-18 13:33N 59°20' E 018°05'0 0.0
2014-Oct-18 12:33N 59°20' E 018°05'0 0.0
2014-Oct-18 11:32N 59°20' E 018°05'0 0.0
2014-Oct-18 10:33N 59°20' E 018°05'0 0.0
2014-Oct-18 09:33N 59°20' E 018°05'0 0.0
2014-Oct-18 08:33N 59°20' E 018°05'0 0.0
2014-Oct-18 07:33N 59°20' E 018°05'0 0.0
2014-Oct-18 06:32N 59°20' E 018°05'0 0.0
2014-Oct-18 05:24N 59°20' E 018°05'0 0.0
2014-Oct-18 04:33N 59°20' E 018°05'0 0.0
2014-Oct-18 03:33N 59°20' E 018°05'0 0.0
2014-Oct-18 02:33N 59°20' E 018°05'0 0.0
2014-Oct-18 01:33N 59°20' E 018°05'0 0.0
2014-Oct-18 00:33N 59°20' E 018°05'0 0.0
2014-Oct-17 23:32N 59°20' E 018°05'0 0.0
2014-Oct-17 22:33N 59°20' E 018°05'0 0.0
2014-Oct-17 21:33N 59°20' E 018°05'0 0.0
2014-Oct-17 20:33N 59°20' E 018°05'2 2.2
2014-Oct-17 19:33N 59°19' E 018°09'4 3.5
2014-Oct-17 18:32N 59°19' E 018°02'1 1.0
2014-Oct-17 17:33N 59°19' E 017°60'2 2.4
2014-Oct-17 16:33N 59°20' E 018°05'0 0.0
2014-Oct-17 15:33N 59°20' E 018°05'0 0.0
2014-Oct-17 14:31N 59°20' E 018°05'0 0.0
2014-Oct-17 13:32N 59°20' E 018°05'0 0.0
2014-Oct-17 12:32N 59°20' E 018°05'0 0.0
2014-Oct-17 11:33N 59°20' E 018°05'0 0.0
2014-Oct-17 10:33N 59°20' E 018°05'0 0.0
2014-Oct-17 09:33N 59°20' E 018°05'0 0.0
2014-Oct-17 08:32N 59°20' E 018°05'0 0.0
2014-Oct-17 07:32N 59°20' E 018°05'0 0.0
2014-Oct-17 06:32N 59°20' E 018°05'0 0.0
2014-Oct-17 05:32N 59°20' E 018°05'0 0.0
2014-Oct-17 04:33N 59°20' E 018°05'0 0.0
2014-Oct-17 03:33N 59°20' E 018°05'0 0.0
2014-Oct-17 02:33N 59°20' E 018°05'0 0.0
2014-Oct-17 01:32N 59°20' E 018°05'0 0.0
2014-Oct-17 00:32N 59°20' E 018°05'0 0.0
2014-Oct-16 23:33N 59°20' E 018°05'0 0.0
2014-Oct-16 22:33N 59°20' E 018°05'0 0.0
2014-Oct-16 21:32N 59°20' E 018°05'0 0.0
2014-Oct-16 20:33N 59°20' E 018°05'2 2.1
2014-Oct-16 19:32N 59°19' E 018°09'3 3.5
2014-Oct-16 18:32N 59°19' E 018°02'1 1.0
2014-Oct-16 17:32N 59°19' E 017°60'2 2.5
2014-Oct-16 16:33N 59°20' E 018°05'0 0.1
2014-Oct-16 15:33N 59°20' E 018°05'0 0.0
2014-Oct-16 14:33N 59°20' E 018°05'0 0.0
2014-Oct-16 13:33N 59°20' E 018°05'0 0.0
2014-Oct-16 12:33N 59°20' E 018°05'0 0.0
2014-Oct-16 06:31N 59°20' E 018°05'0 0.0
2014-Oct-16 05:09N 59°20' E 018°05'0 0.0
2014-Oct-16 04:32N 59°20' E 018°05'0 0.0
2014-Oct-16 03:33N 59°20' E 018°05'0 0.0
2014-Oct-16 00:24N 59°20' E 018°05'0 0.0
2014-Oct-15 23:33N 59°20' E 018°05'0 0.0
2014-Oct-15 20:12N 59°20' E 018°05'1 0.5
2014-Oct-15 18:33N 59°19' E 018°03'1 0.1
2014-Oct-15 04:32N 59°20' E 018°05'0 0.0
2014-Oct-15 03:33N 59°20' E 018°05'0 0.0
2014-Oct-15 02:25N 59°20' E 018°05'0 0.0
2014-Oct-15 01:31N 59°20' E 018°05'0 0.0
2014-Oct-15 00:32N 59°20' E 018°05'0 0.0
2014-Oct-14 23:28N 59°20' E 018°05'0 0.0
2014-Oct-14 22:32N 59°20' E 018°05'0 0.0
2014-Oct-14 21:33N 59°20' E 018°05'0 0.0
2014-Oct-14 20:32N 59°20' E 018°05'  

Dump ship's entire track history